KIDA/IDA METAR and TAF weather

Enter ICAO airport designator
Station Type Date Time Source
KIDA METAR 2019/02/17 08:21 UTC NOAA

KIDA 170821Z AUTO 21005KT 1 1/2SM -SN BR FEW008 OVC012 M04/M06 A2980 RMK AO2 P0002 T10441056


Station Type Date Time Source
KIDA Decoded METAR 2019/02/17 08:21 UTC NOAA

IDAHO FALLS REGIONAL AIRPORT, ID, United States (KIDA) 43-31N 112-04W 1453M
Feb 17, 2019 - 03:21 AM EST / 2019.02.17 0821 UTC
Wind: from the SSW (210 degrees) at 6 MPH (5 KT):0
Visibility: 1 1/2 mile(s):0
Sky conditions: overcast
Weather: light snow; mist
Precipitation last hour: 0.02 inches
Temperature: 24.1 F (-4.4 C)
Windchill: 17 F (-8 C):1
Dew Point: 21.9 F (-5.6 C)
Relative Humidity: 91%
Pressure (altimeter): 29.8 in. Hg (1009 hPa)
ob: KIDA 170821Z AUTO 21005KT 1 1/2SM -SN BR FEW008 OVC012 M04/M06 A2980 RMK AO2 P0002 T10441056
cycle: 8

Station Type Date Time Source
KIDA TAF 2019/02/17 07:16 UTC NOAA

TAF
AMD KIDA 170714Z 1707/1806 21011KT P6SM VCSH SCT010 OVC035
TEMPO 1707/1710 1SM -SN SCT015 OVC025
FM172000 36006KT P6SM VCSH SCT020 BKN040


Example: see airport list